Terminal Aerodrome Forecast
Issued by NWS

Home | Current Version | Previous Version | Text Only | Print | Product List | Glossary On
Versions: 1 2 3 4 5 6 7 8 9 10 11 12 13 14 15 16 17 18 19 20 21 22 23 24 25 26 27 28 29 30 31 32 33 34 35 36
000
FTUS44 KHGX 192352 AAA
TAFIAH
TAF AMD
KIAH 192352Z 2000/2106 12015KT P6SM FEW020 SCT100 BKN250
      TEMPO 2000/2002 BKN016 OVC025
     FM200200 13012KT P6SM OVC015
     FM201000 16007KT 6SM -RA BR OVC010
      TEMPO 2011/2015 VRB25KT 3SM TSRA OVC007CB
     FM201600 09008KT 4SM SHRA VCTS BKN010CB
     FM202200 09006KT 6SM -RA SCT020 BKN035 BKN120
     FM210200 00000KT P6SM VCSH SCT010 BKN120=

USA.gov is the U.S. government's official web portal to all federal, state and local government web resources and services.